Time;durP1;ratioP1;P1;durP2;ratioP2;P2;SDS_P1;SDS_P2;PMS_P1;PMS_P2;Temp;Humidity;BMP_temperature;BMP_pressure;BME280_temperature;BME280_humidity;BME280_pressure;Samples;Min_cycle;Max_cycle;Signal;HPM_P1;HPM_P2
2021/12/11 00:00:28;;;;;;;2.30;1.30;;;;;;;;;;5010307;28;20037;-72
2021/12/11 00:03:15;;;;;;;4.15;1.75;;;;;;;;;;5028621;28;20381;-74
2021/12/11 00:05:41;;;;;;;2.83;1.50;;;;;;;;;;5023250;28;20049;-72
2021/12/11 00:08:08;;;;;;;3.35;1.27;;;;;;;;;;5026063;28;20134;-70
2021/12/11 00:10:42;;;;;;;5.03;1.38;;;;;;;;;;5027775;28;20109;-72
2021/12/11 00:13:11;;;;;;;3.83;1.58;;;;;;;;;;5028282;28;20043;-70
2021/12/11 00:15:39;;;;;;;4.03;1.42;;;;;;;;;;5027170;28;20505;-71
2021/12/11 00:18:06;;;;;;;3.60;1.42;;;;;;;;;;5026845;28;20037;-71
2021/12/11 00:20:33;;;;;;;2.33;1.15;;;;;;;;;;5025342;28;20045;-71
2021/12/11 00:22:59;;;;;;;4.40;1.45;;;;;;;;;;5024770;28;20056;-82
2021/12/11 00:25:24;;;;;;;3.05;1.50;;;;;;;;;;5022294;28;20069;-75
2021/12/11 00:27:50;;;;;;;4.45;1.27;;;;;;;;;;5028031;28;20021;-79
2021/12/11 00:30:21;;;;;;;2.50;1.13;;;;;;;;;;5028469;28;20021;-82
2021/12/11 00:32:46;;;;;;;5.28;1.55;;;;;;;;;;5024376;28;20048;-85
2021/12/11 00:35:14;;;;;;;4.20;1.33;;;;;;;;;;5029346;28;20026;-76
2021/12/11 00:37:39;;;;;;;4.57;1.25;;;;;;;;;;5031260;28;20025;-79
2021/12/11 00:40:25;;;;;;;2.80;1.30;;;;;;;;;;5032763;28;20526;-79
2021/12/11 00:42:51;;;;;;;3.05;1.40;;;;;;;;;;5032530;28;20374;-83
2021/12/11 00:45:21;;;;;;;3.22;1.23;;;;;;;;;;5036951;28;20060;-79
2021/12/11 00:47:54;;;;;;;3.03;1.40;;;;;;;;;;5032240;28;20447;-75
2021/12/11 00:50:21;;;;;;;2.97;1.45;;;;;;;;;;5031115;28;20065;-74
2021/12/11 00:52:51;;;;;;;3.05;1.10;;;;;;;;;;5029594;28;20492;-74
2021/12/11 00:55:17;;;;;;;4.35;1.30;;;;;;;;;;5029139;28;20040;-74
2021/12/11 00:57:42;;;;;;;2.00;1.02;;;;;;;;;;5027054;28;20033;-73
2021/12/11 01:00:09;;;;;;;3.97;1.17;;;;;;;;;;5025804;28;20061;-75
2021/12/11 01:02:35;;;;;;;1.98;1.20;;;;;;;;;;5022522;28;20397;-73
2021/12/11 01:05:00;;;;;;;2.78;1.20;;;;;;;;;;5024930;28;20025;-74
2021/12/11 01:07:31;;;;;;;2.58;1.23;;;;;;;;;;5031738;28;20435;-75
2021/12/11 01:09:59;;;;;;;2.78;1.27;;;;;;;;;;5031103;28;20040;-75
2021/12/11 01:12:27;;;;;;;3.50;1.00;;;;;;;;;;5024804;28;20080;-76
2021/12/11 01:14:56;;;;;;;3.10;1.23;;;;;;;;;;5031008;28;20025;-75
2021/12/11 01:17:37;;;;;;;1.63;1.02;;;;;;;;;;5031862;28;20022;-74
2021/12/11 01:20:05;;;;;;;4.10;1.23;;;;;;;;;;5031570;28;20056;-74
2021/12/11 01:22:35;;;;;;;2.95;1.13;;;;;;;;;;5036516;28;20057;-73
2021/12/11 01:25:06;;;;;;;3.38;1.10;;;;;;;;;;5031524;28;20070;-73
2021/12/11 01:27:32;;;;;;;3.05;1.13;;;;;;;;;;5031768;28;20033;-75
2021/12/11 01:29:58;;;;;;;3.85;1.40;;;;;;;;;;5031168;28;20037;-75
2021/12/11 01:32:25;;;;;;;3.58;1.00;;;;;;;;;;5031277;28;20026;-74
2021/12/11 01:34:51;;;;;;;2.72;1.05;;;;;;;;;;5028938;28;20380;-75
2021/12/11 01:37:16;;;;;;;2.58;1.20;;;;;;;;;;5031043;28;20021;-74
2021/12/11 01:39:42;;;;;;;3.03;1.20;;;;;;;;;;5031115;28;20022;-74
2021/12/11 01:42:09;;;;;;;1.42;0.90;;;;;;;;;;5031150;28;20022;-74
2021/12/11 01:44:36;;;;;;;2.22;1.13;;;;;;;;;;5029684;28;20022;-75
2021/12/11 01:47:12;;;;;;;2.03;1.00;;;;;;;;;;5030296;28;20112;-75
2021/12/11 01:49:40;;;;;;;1.98;1.00;;;;;;;;;;5031116;28;20083;-76
2021/12/11 01:52:18;;;;;;;2.05;1.02;;;;;;;;;;5033854;28;20033;-76
2021/12/11 01:54:45;;;;;;;2.55;1.30;;;;;;;;;;5024206;28;20025;-76
2021/12/11 01:57:13;;;;;;;2.35;1.20;;;;;;;;;;5031434;28;20025;-77
2021/12/11 01:59:41;;;;;;;2.53;1.20;;;;;;;;;;5031081;28;20029;-76
2021/12/11 02:02:15;;;;;;;3.05;1.40;;;;;;;;;;5030961;28;20422;-74
2021/12/11 02:04:42;;;;;;;1.85;1.20;;;;;;;;;;5030805;28;20067;-75
2021/12/11 02:07:13;;;;;;;1.92;1.02;;;;;;;;;;5030023;28;20061;-75
2021/12/11 02:09:39;;;;;;;2.63;1.55;;;;;;;;;;5030757;28;20465;-74
2021/12/11 02:12:04;;;;;;;1.58;1.00;;;;;;;;;;5027397;28;20500;-77
2021/12/11 02:14:36;;;;;;;3.70;1.20;;;;;;;;;;5024350;28;20045;-74
2021/12/11 02:17:02;;;;;;;2.05;1.20;;;;;;;;;;5027083;28;20037;-74
2021/12/11 02:19:32;;;;;;;2.88;1.25;;;;;;;;;;5027303;28;20026;-76
2021/12/11 02:22:00;;;;;;;2.80;1.23;;;;;;;;;;5035835;28;20068;-76
2021/12/11 02:24:31;;;;;;;1.65;1.10;;;;;;;;;;5024931;28;20053;-75
2021/12/11 02:26:56;;;;;;;2.47;1.40;;;;;;;;;;5028543;28;20076;-75
2021/12/11 02:29:28;;;;;;;3.10;1.35;;;;;;;;;;5028757;28;20085;-75
2021/12/11 02:31:56;;;;;;;3.50;1.30;;;;;;;;;;5029845;28;20567;-75
2021/12/11 02:34:27;;;;;;;2.50;1.33;;;;;;;;;;5025890;28;20024;-76
2021/12/11 02:36:55;;;;;;;4.35;1.67;;;;;;;;;;5030858;28;20044;-75
2021/12/11 02:39:29;;;;;;;2.28;1.52;;;;;;;;;;5027950;28;20436;-75
2021/12/11 02:42:00;;;;;;;1.52;1.17;;;;;;;;;;5029154;28;20061;-75
2021/12/11 02:44:29;;;;;;;2.28;1.17;;;;;;;;;;5026630;28;20029;-75
2021/12/11 02:46:57;;;;;;;1.77;1.10;;;;;;;;;;5027202;28;20065;-75
2021/12/11 02:49:25;;;;;;;4.10;1.30;;;;;;;;;;5021506;28;20481;-75
2021/12/11 02:51:56;;;;;;;1.63;1.13;;;;;;;;;;5032195;28;20108;-75
2021/12/11 02:54:28;;;;;;;2.10;1.23;;;;;;;;;;5029660;28;20053;-74
2021/12/11 02:56:55;;;;;;;4.13;1.45;;;;;;;;;;5029900;28;20096;-74
2021/12/11 02:59:27;;;;;;;2.63;1.30;;;;;;;;;;5024679;28;20017;-74
2021/12/11 03:02:02;;;;;;;2.63;1.30;;;;;;;;;;5028346;28;20102;-75
2021/12/11 03:04:38;;;;;;;2.45;1.10;;;;;;;;;;5023266;28;20449;-75
2021/12/11 03:07:07;;;;;;;3.10;1.55;;;;;;;;;;5025235;28;20064;-75
2021/12/11 03:09:33;;;;;;;2.97;1.58;;;;;;;;;;5026787;28;20508;-74
2021/12/11 03:12:01;;;;;;;3.13;1.20;;;;;;;;;;5023082;28;20031;-74
2021/12/11 03:14:27;;;;;;;4.25;1.50;;;;;;;;;;5029364;28;20026;-75
2021/12/11 03:16:52;;;;;;;3.53;1.27;;;;;;;;;;5029389;28;20029;-75
2021/12/11 03:19:20;;;;;;;2.22;1.20;;;;;;;;;;5029670;28;20021;-76
2021/12/11 03:21:47;;;;;;;3.85;1.58;;;;;;;;;;5031278;28;20444;-74
2021/12/11 03:24:13;;;;;;;2.33;1.40;;;;;;;;;;5029064;28;20588;-74
2021/12/11 03:26:39;;;;;;;2.80;1.33;;;;;;;;;;5023365;28;20045;-74
2021/12/11 03:29:05;;;;;;;3.75;1.38;;;;;;;;;;5021559;28;20028;-75
2021/12/11 03:31:31;;;;;;;5.13;1.70;;;;;;;;;;5021592;28;20026;-75
2021/12/11 03:33:57;;;;;;;3.97;1.50;;;;;;;;;;5021994;28;20044;-75
2021/12/11 03:36:24;;;;;;;3.00;1.55;;;;;;;;;;5022532;28;20025;-74
2021/12/11 03:38:51;;;;;;;2.28;1.40;;;;;;;;;;5027497;28;20036;-73
2021/12/11 03:41:17;;;;;;;4.18;1.70;;;;;;;;;;5026692;28;20029;-75
2021/12/11 03:43:42;;;;;;;2.67;1.50;;;;;;;;;;5028883;28;20022;-73
2021/12/11 03:46:09;;;;;;;2.53;1.65;;;;;;;;;;5029134;28;20048;-73
2021/12/11 03:48:42;;;;;;;2.53;1.40;;;;;;;;;;5028641;28;20018;-75
2021/12/11 03:51:09;;;;;;;3.25;1.70;;;;;;;;;;5029231;28;20029;-74
2021/12/11 03:53:34;;;;;;;3.70;1.70;;;;;;;;;;5022896;28;20080;-74
2021/12/11 03:56:03;;;;;;;3.28;1.55;;;;;;;;;;5028016;28;20036;-73
2021/12/11 03:58:29;;;;;;;2.30;1.70;;;;;;;;;;5026336;28;20162;-74
2021/12/11 04:01:06;;;;;;;7.68;1.90;;;;;;;;;;5028235;28;20639;-73
2021/12/11 04:03:32;;;;;;;5.10;1.60;;;;;;;;;;5023874;28;20030;-73
2021/12/11 04:05:58;;;;;;;4.75;1.80;;;;;;;;;;5028845;28;20033;-73
2021/12/11 04:08:26;;;;;;;2.40;1.30;;;;;;;;;;5028602;28;20128;-74
2021/12/11 04:10:51;;;;;;;2.33;1.63;;;;;;;;;;5030790;28;20025;-74
2021/12/11 04:13:17;;;;;;;4.25;1.60;;;;;;;;;;5029726;28;20380;-74
2021/12/11 04:15:44;;;;;;;2.58;1.63;;;;;;;;;;5031298;28;20139;-73
2021/12/11 04:18:10;;;;;;;2.45;1.80;;;;;;;;;;5032500;28;20033;-74
2021/12/11 04:20:37;;;;;;;3.03;1.80;;;;;;;;;;5036367;28;20020;-75
2021/12/11 04:23:03;;;;;;;2.83;1.65;;;;;;;;;;5034267;28;20484;-75
2021/12/11 04:25:29;;;;;;;5.65;2.20;;;;;;;;;;5032081;28;20122;-74
2021/12/11 04:27:54;;;;;;;7.07;1.90;;;;;;;;;;5032160;28;20045;-73
2021/12/11 04:30:21;;;;;;;4.78;1.90;;;;;;;;;;5032945;28;20417;-74
2021/12/11 04:32:48;;;;;;;4.22;2.25;;;;;;;;;;5032172;28;20029;-73
2021/12/11 04:35:15;;;;;;;5.07;2.30;;;;;;;;;;5026137;28;20392;-74
2021/12/11 04:37:40;;;;;;;4.50;2.35;;;;;;;;;;5032303;28;20048;-74
2021/12/11 04:40:14;;;;;;;4.03;2.20;;;;;;;;;;5032092;28;20029;-74
2021/12/11 04:43:16;;;;;;;5.45;2.28;;;;;;;;;;5032544;28;20056;-74
2021/12/11 04:45:38;;;;;;;6.10;2.65;;;;;;;;;;5023940;28;20055;-74
2021/12/11 04:48:36;;;;;;;6.88;2.67;;;;;;;;;;5032070;28;20021;-73
2021/12/11 04:51:22;;;;;;;6.67;2.63;;;;;;;;;;5032488;28;20026;-74
2021/12/11 04:54:01;;;;;;;4.88;2.33;;;;;;;;;;5025986;28;20260;-73
2021/12/11 05:07:38;;;;;;;4.40;2.60;;;;;;;;;;4988778;28;20088;-73
2021/12/11 05:13:01;;;;;;;4.97;2.75;;;;;;;;;;4969912;28;20479;-73
2021/12/11 05:15:28;;;;;;;4.20;2.25;;;;;;;;;;4961125;28;20050;-72
2021/12/11 05:17:54;;;;;;;6.18;2.40;;;;;;;;;;4951744;28;20102;-73
2021/12/11 05:20:21;;;;;;;4.95;2.10;;;;;;;;;;4952707;28;20031;-74
2021/12/11 05:22:47;;;;;;;5.07;2.58;;;;;;;;;;4956391;28;20566;-73
2021/12/11 05:25:13;;;;;;;6.18;2.40;;;;;;;;;;4955370;28;20023;-73
2021/12/11 05:27:39;;;;;;;4.25;2.38;;;;;;;;;;4951388;28;20484;-74
2021/12/11 05:30:06;;;;;;;4.38;2.40;;;;;;;;;;4950767;28;20043;-75
2021/12/11 05:32:31;;;;;;;4.45;2.63;;;;;;;;;;4957488;28;20022;-73
2021/12/11 05:34:58;;;;;;;4.88;2.50;;;;;;;;;;4967739;28;20065;-73
2021/12/11 05:37:23;;;;;;;4.70;2.58;;;;;;;;;;4962520;28;20130;-73
2021/12/11 05:39:49;;;;;;;6.53;2.70;;;;;;;;;;4957903;28;20039;-73
2021/12/11 05:42:14;;;;;;;5.05;2.38;;;;;;;;;;4965135;28;20376;-73
2021/12/11 05:44:40;;;;;;;6.75;2.63;;;;;;;;;;4969081;28;20480;-73
2021/12/11 05:47:06;;;;;;;4.70;2.50;;;;;;;;;;4969158;28;20105;-74
2021/12/11 05:49:32;;;;;;;5.47;2.60;;;;;;;;;;5000180;28;20040;-72
2021/12/11 05:51:58;;;;;;;7.00;2.78;;;;;;;;;;5028897;28;20128;-74
2021/12/11 05:54:24;;;;;;;5.25;2.70;;;;;;;;;;5030378;28;20124;-74
2021/12/11 05:56:53;;;;;;;3.72;2.45;;;;;;;;;;5030879;28;20052;-74
2021/12/11 05:59:18;;;;;;;5.47;2.53;;;;;;;;;;5026914;28;20457;-73
2021/12/11 06:01:49;;;;;;;4.72;2.88;;;;;;;;;;5022073;28;20072;-73
2021/12/11 06:04:16;;;;;;;6.10;3.28;;;;;;;;;;5030184;28;20028;-74
2021/12/11 06:06:42;;;;;;;6.63;3.03;;;;;;;;;;5026008;28;20055;-73
2021/12/11 06:09:09;;;;;;;4.68;3.15;;;;;;;;;;5026589;28;20029;-73
2021/12/11 06:11:34;;;;;;;6.68;3.22;;;;;;;;;;5029055;28;20088;-73
2021/12/11 06:13:59;;;;;;;6.43;3.15;;;;;;;;;;5022804;28;20515;-73
2021/12/11 06:16:25;;;;;;;5.97;2.80;;;;;;;;;;5028751;28;20389;-74
2021/12/11 06:18:50;;;;;;;6.05;3.00;;;;;;;;;;5027375;28;20048;-73
2021/12/11 06:21:15;;;;;;;5.80;2.80;;;;;;;;;;5028680;28;20026;-74
2021/12/11 06:23:41;;;;;;;4.35;2.78;;;;;;;;;;5029351;28;20021;-74
2021/12/11 06:26:06;;;;;;;5.00;2.80;;;;;;;;;;5029444;28;20048;-74
2021/12/11 06:28:31;;;;;;;6.05;2.90;;;;;;;;;;5029632;28;20022;-73
2021/12/11 06:30:58;;;;;;;4.60;2.90;;;;;;;;;;5026714;28;20030;-73
2021/12/11 06:33:24;;;;;;;4.28;2.60;;;;;;;;;;5018527;28;20358;-73
2021/12/11 06:35:52;;;;;;;3.67;2.22;;;;;;;;;;5026318;28;20058;-73
2021/12/11 06:38:19;;;;;;;4.30;2.75;;;;;;;;;;5029701;28;20037;-73
2021/12/11 06:40:44;;;;;;;3.40;2.40;;;;;;;;;;5022880;28;20021;-72
2021/12/11 06:43:10;;;;;;;4.20;2.38;;;;;;;;;;5024111;28;20032;-74
2021/12/11 06:45:35;;;;;;;5.07;2.38;;;;;;;;;;5023224;28;20041;-74
2021/12/11 06:48:00;;;;;;;4.60;2.20;;;;;;;;;;5029749;28;20349;-72
2021/12/11 06:50:26;;;;;;;4.38;2.17;;;;;;;;;;5031012;28;20087;-72
2021/12/11 06:52:52;;;;;;;4.65;2.22;;;;;;;;;;5023457;28;20025;-73
2021/12/11 06:55:17;;;;;;;3.25;2.20;;;;;;;;;;5029474;28;20040;-73
2021/12/11 06:57:43;;;;;;;4.43;2.42;;;;;;;;;;5029528;28;20116;-73
2021/12/11 07:00:09;;;;;;;4.32;2.10;;;;;;;;;;5029481;28;20029;-74
2021/12/11 07:02:34;;;;;;;4.03;2.20;;;;;;;;;;5030453;28;20104;-72
2021/12/11 07:04:59;;;;;;;4.47;2.30;;;;;;;;;;5040229;28;20083;-74
2021/12/11 07:07:31;;;;;;;3.97;2.10;;;;;;;;;;5042524;28;20060;-74
2021/12/11 07:09:56;;;;;;;4.63;2.35;;;;;;;;;;5043088;28;20060;-74
2021/12/11 07:12:21;;;;;;;4.20;2.30;;;;;;;;;;5039723;28;20454;-71
2021/12/11 07:14:47;;;;;;;3.17;2.00;;;;;;;;;;5040197;28;20111;-72
2021/12/11 07:17:12;;;;;;;3.75;2.20;;;;;;;;;;5039983;28;20024;-72
2021/12/11 07:19:38;;;;;;;3.70;2.20;;;;;;;;;;5035049;28;20033;-71
2021/12/11 07:22:03;;;;;;;4.43;2.38;;;;;;;;;;5039558;28;20379;-73
2021/12/11 07:24:32;;;;;;;4.15;2.47;;;;;;;;;;5035278;28;20037;-72
2021/12/11 07:26:59;;;;;;;4.03;2.17;;;;;;;;;;5037626;28;20485;-72
2021/12/11 07:29:24;;;;;;;4.32;2.35;;;;;;;;;;5037929;28;20030;-72
2021/12/11 07:31:50;;;;;;;3.38;2.33;;;;;;;;;;5032437;28;20433;-72
2021/12/11 07:34:16;;;;;;;3.65;2.05;;;;;;;;;;5036180;28;20032;-72
2021/12/11 07:36:42;;;;;;;4.47;2.42;;;;;;;;;;5030805;28;20452;-72
2021/12/11 07:39:09;;;;;;;3.72;2.42;;;;;;;;;;5028477;28;20032;-62
2021/12/11 07:41:34;;;;;;;3.80;2.10;;;;;;;;;;5025931;28;20033;-62
2021/12/11 07:43:59;;;;;;;5.60;2.22;;;;;;;;;;5036538;28;20448;-62
2021/12/11 07:46:27;;;;;;;5.43;2.20;;;;;;;;;;5038756;28;20041;-62
2021/12/11 07:48:52;;;;;;;3.85;2.28;;;;;;;;;;5038462;28;20740;-63
2021/12/11 07:51:18;;;;;;;4.07;2.20;;;;;;;;;;5033030;28;20111;-62
2021/12/11 07:53:44;;;;;;;5.13;2.17;;;;;;;;;;5034891;28;20110;-62
2021/12/11 07:56:10;;;;;;;3.92;2.20;;;;;;;;;;5037514;28;20071;-62
2021/12/11 07:58:35;;;;;;;4.10;2.20;;;;;;;;;;5033691;28;20033;-62
2021/12/11 08:01:02;;;;;;;4.20;2.40;;;;;;;;;;5033522;28;20037;-63
2021/12/11 08:03:27;;;;;;;3.47;1.77;;;;;;;;;;5033604;28;20026;-62
2021/12/11 08:05:54;;;;;;;3.55;1.65;;;;;;;;;;5024135;28;20041;-62
2021/12/11 08:08:20;;;;;;;1.35;1.05;;;;;;;;;;5025597;28;20522;-62
2021/12/11 08:10:47;;;;;;;1.77;1.20;;;;;;;;;;5027964;28;20361;-63
2021/12/11 08:13:13;;;;;;;2.38;1.10;;;;;;;;;;5028342;28;20069;-62
2021/12/11 08:15:40;;;;;;;2.03;1.30;;;;;;;;;;5028090;28;20116;-62
2021/12/11 08:18:06;;;;;;;2.30;1.10;;;;;;;;;;5021536;28;20505;-61
2021/12/11 08:20:32;;;;;;;4.68;1.77;;;;;;;;;;5030881;28;20058;-61
2021/12/11 08:22:58;;;;;;;3.53;1.80;;;;;;;;;;5030016;28;20032;-61
2021/12/11 08:25:26;;;;;;;3.17;1.83;;;;;;;;;;5022342;28;20036;-63
2021/12/11 08:27:51;;;;;;;4.93;2.40;;;;;;;;;;5027914;28;20843;-62
2021/12/11 08:30:17;;;;;;;4.05;2.38;;;;;;;;;;5028122;28;20156;-62
2021/12/11 08:32:42;;;;;;;5.45;2.63;;;;;;;;;;5027827;28;20052;-62
2021/12/11 08:35:09;;;;;;;6.90;2.97;;;;;;;;;;5019725;28;20033;-62
2021/12/11 08:37:35;;;;;;;4.72;3.05;;;;;;;;;;5016772;28;20125;-62
2021/12/11 08:40:01;;;;;;;4.38;2.70;;;;;;;;;;5028111;28;20030;-63
2021/12/11 08:42:27;;;;;;;4.82;2.88;;;;;;;;;;5025554;28;20025;-61
2021/12/11 08:45:03;;;;;;;4.60;2.97;;;;;;;;;;5020122;28;20025;-62
2021/12/11 08:47:28;;;;;;;6.55;3.45;;;;;;;;;;5027486;28;20048;-63
2021/12/11 08:49:54;;;;;;;6.72;4.00;;;;;;;;;;5028244;28;20037;-63
2021/12/11 08:52:32;;;;;;;10.13;3.85;;;;;;;;;;5031811;28;20030;-65
2021/12/11 08:54:58;;;;;;;8.23;4.45;;;;;;;;;;5017545;28;20453;-64
2021/12/11 08:57:28;;;;;;;6.65;3.78;;;;;;;;;;5028104;28;20053;-66
2021/12/11 08:59:56;;;;;;;5.53;4.00;;;;;;;;;;5029074;28;20047;-65
2021/12/11 09:02:23;;;;;;;6.80;4.20;;;;;;;;;;5030334;28;20079;-64
2021/12/11 09:04:54;;;;;;;12.35;4.25;;;;;;;;;;5030787;28;20021;-65
2021/12/11 09:07:25;;;;;;;5.70;4.07;;;;;;;;;;5029340;28;20104;-65
2021/12/11 09:09:56;;;;;;;7.78;4.30;;;;;;;;;;5025039;28;20038;-66
2021/12/11 09:12:24;;;;;;;8.68;4.80;;;;;;;;;;5018618;28;20491;-63
2021/12/11 09:14:52;;;;;;;8.03;4.60;;;;;;;;;;5030123;28;20025;-65
2021/12/11 09:17:21;;;;;;;7.30;5.15;;;;;;;;;;5026748;28;20029;-64
2021/12/11 09:19:52;;;;;;;8.05;5.18;;;;;;;;;;5031358;28;20090;-65
2021/12/11 09:22:22;;;;;;;7.70;4.82;;;;;;;;;;5031607;28;20058;-65
2021/12/11 09:24:58;;;;;;;6.65;4.90;;;;;;;;;;5031376;28;20027;-65
2021/12/11 09:27:32;;;;;;;7.60;5.20;;;;;;;;;;5031216;28;20048;-66
2021/12/11 09:30:00;;;;;;;7.00;5.22;;;;;;;;;;5024291;28;20145;-64
2021/12/11 09:32:31;;;;;;;5.63;4.50;;;;;;;;;;5031035;28;20107;-64
2021/12/11 09:35:00;;;;;;;6.28;5.30;;;;;;;;;;5028842;28;20252;-64
2021/12/11 09:37:25;;;;;;;7.22;5.80;;;;;;;;;;5028314;28;20035;-64
2021/12/11 09:39:56;;;;;;;8.30;5.15;;;;;;;;;;5030705;28;20120;-63
2021/12/11 09:42:21;;;;;;;6.95;4.95;;;;;;;;;;5019033;28;20116;-63
2021/12/11 09:44:53;;;;;;;5.18;4.10;;;;;;;;;;5028499;28;20454;-63
2021/12/11 09:47:25;;;;;;;5.93;4.70;;;;;;;;;;5029870;28;20037;-64
2021/12/11 09:49:56;;;;;;;6.55;4.57;;;;;;;;;;5028171;28;20136;-62
2021/12/11 09:52:25;;;;;;;5.82;4.32;;;;;;;;;;5031249;28;20527;-62
2021/12/11 09:54:56;;;;;;;6.07;4.80;;;;;;;;;;5022488;28;20087;-61
2021/12/11 09:57:24;;;;;;;6.40;4.88;;;;;;;;;;5025952;28;20041;-63
2021/12/11 09:59:52;;;;;;;6.68;4.80;;;;;;;;;;5024904;28;20106;-63
2021/12/11 10:02:20;;;;;;;7.07;4.97;;;;;;;;;;5026297;28;20080;-62
2021/12/11 10:04:52;;;;;;;8.02;5.03;;;;;;;;;;5032982;28;20373;-63
2021/12/11 10:09:58;;;;;;;7.30;5.00;;;;;;;;;;5030067;28;20376;-64
2021/12/11 10:12:25;;;;;;;7.78;5.30;;;;;;;;;;5029766;28;20104;-63
2021/12/11 10:14:53;;;;;;;6.30;4.65;;;;;;;;;;5021447;28;20053;-64
2021/12/11 10:17:20;;;;;;;6.53;4.53;;;;;;;;;;5026504;28;20025;-64
2021/12/11 10:19:46;;;;;;;5.80;4.50;;;;;;;;;;5030266;28;20057;-64
2021/12/11 10:22:14;;;;;;;7.32;5.22;;;;;;;;;;5027270;28;20044;-65
2021/12/11 10:24:39;;;;;;;7.05;4.28;;;;;;;;;;5024167;28;20022;-62
2021/12/11 10:27:06;;;;;;;7.53;4.63;;;;;;;;;;5023620;28;20374;-62
2021/12/11 10:29:32;;;;;;;7.65;4.93;;;;;;;;;;5023335;28;20025;-63
2021/12/11 10:32:01;;;;;;;6.72;5.00;;;;;;;;;;5027958;28;20025;-63
2021/12/11 10:34:26;;;;;;;;;;;;;;;;;;5027768;28;20868;-62
2021/12/11 10:37:12;;;;;;;7.15;4.88;;;;;;;;;;5025106;28;20783;-63
2021/12/11 10:39:39;;;;;;;5.55;4.43;;;;;;;;;;5016297;28;20964;-62
2021/12/11 10:42:05;;;;;;;8.35;4.88;;;;;;;;;;5029921;28;20116;-63
2021/12/11 10:44:33;;;;;;;5.60;4.63;;;;;;;;;;5030156;28;20096;-63
2021/12/11 10:47:25;;;;;;;5.88;4.30;;;;;;;;;;5025417;28;20148;-63
2021/12/11 10:49:51;;;;;;;6.10;4.28;;;;;;;;;;5021611;28;20036;-63
2021/12/11 10:52:18;;;;;;;6.97;4.43;;;;;;;;;;5022585;28;20049;-63
2021/12/11 10:54:44;;;;;;;5.50;4.00;;;;;;;;;;5026812;28;20025;-63
2021/12/11 10:57:09;;;;;;;5.78;4.50;;;;;;;;;;5029106;28;20067;-63
2021/12/11 10:59:37;;;;;;;5.70;4.25;;;;;;;;;;5025022;28;20013;-63
2021/12/11 11:02:08;;;;;;;6.20;4.32;;;;;;;;;;5019925;28;20477;-64
2021/12/11 11:04:36;;;;;;;6.55;4.75;;;;;;;;;;5021867;28;20045;-63
2021/12/11 11:07:01;;;;;;;6.13;4.70;;;;;;;;;;5022388;28;20052;-62
2021/12/11 11:09:27;;;;;;;6.43;4.75;;;;;;;;;;5028865;28;20033;-63
2021/12/11 11:11:54;;;;;;;8.98;4.65;;;;;;;;;;5026950;28;20140;-65
2021/12/11 11:14:20;;;;;;;7.13;5.40;;;;;;;;;;5028769;28;20132;-64
2021/12/11 11:16:51;;;;;;;6.22;4.72;;;;;;;;;;5028526;28;20542;-64
2021/12/11 11:19:16;;;;;;;6.30;5.05;;;;;;;;;;5028502;28;20042;-64
2021/12/11 11:21:44;;;;;;;6.28;4.95;;;;;;;;;;5022784;28;20029;-64
2021/12/11 11:24:10;;;;;;;6.18;4.82;;;;;;;;;;5025230;28;20026;-66
2021/12/11 11:26:37;;;;;;;6.15;4.40;;;;;;;;;;5020222;28;20038;-64
2021/12/11 11:29:05;;;;;;;6.78;4.70;;;;;;;;;;5025390;28;20082;-65
2021/12/11 11:31:34;;;;;;;6.55;5.10;;;;;;;;;;5022146;28;20026;-63
2021/12/11 11:33:59;;;;;;;5.67;4.20;;;;;;;;;;5021616;28;20036;-64
2021/12/11 11:36:26;;;;;;;5.90;4.30;;;;;;;;;;5008055;28;20029;-65
2021/12/11 11:38:54;;;;;;;6.53;4.90;;;;;;;;;;5019520;28;20033;-64
2021/12/11 11:41:22;;;;;;;6.60;4.63;;;;;;;;;;5022027;28;20389;-65
2021/12/11 11:43:47;;;;;;;6.85;4.75;;;;;;;;;;5027568;28;20021;-64
2021/12/11 11:46:13;;;;;;;5.47;4.00;;;;;;;;;;5028909;28;20035;-66
2021/12/11 11:48:41;;;;;;;5.90;4.20;;;;;;;;;;5028175;28;20433;-64
2021/12/11 11:51:10;;;;;;;5.45;4.00;;;;;;;;;;5031521;28;20102;-64
2021/12/11 11:53:35;;;;;;;6.07;4.28;;;;;;;;;;5024812;28;20100;-65
2021/12/11 11:56:03;;;;;;;6.13;4.45;;;;;;;;;;5022419;28;20111;-64
2021/12/11 11:58:29;;;;;;;6.50;4.57;;;;;;;;;;5028276;28;20133;-63
2021/12/11 12:00:58;;;;;;;5.47;4.38;;;;;;;;;;5019122;28;20034;-63
2021/12/11 12:03:26;;;;;;;6.53;5.10;;;;;;;;;;5028150;28;20033;-63
2021/12/11 12:05:53;;;;;;;6.60;4.95;;;;;;;;;;5028215;28;20050;-65
2021/12/11 12:08:18;;;;;;;5.25;4.30;;;;;;;;;;5027883;28;20087;-64
2021/12/11 12:10:46;;;;;;;6.25;4.78;;;;;;;;;;5022513;28;20394;-63
2021/12/11 12:13:12;;;;;;;5.90;4.80;;;;;;;;;;5027637;28;20062;-63
2021/12/11 12:15:39;;;;;;;5.18;4.32;;;;;;;;;;5027402;28;20029;-64
2021/12/11 12:18:09;;;;;;;6.50;4.57;;;;;;;;;;5027572;28;20031;-64
2021/12/11 12:20:35;;;;;;;;;;;;;;;;;;5027085;28;20032;-63
2021/12/11 12:23:00;;;;;;;5.90;4.25;;;;;;;;;;5027528;28;19909;-62
2021/12/11 12:25:26;;;;;;;5.63;4.47;;;;;;;;;;5021476;28;20037;-63
2021/12/11 12:27:51;;;;;;;6.82;4.47;;;;;;;;;;5022248;28;20032;-63
2021/12/11 12:30:22;;;;;;;5.68;4.32;;;;;;;;;;5023515;28;20032;-64
2021/12/11 12:32:50;;;;;;;5.05;4.25;;;;;;;;;;5021234;28;20055;-63
2021/12/11 12:35:16;;;;;;;5.03;3.85;;;;;;;;;;5027806;28;20037;-64
2021/12/11 12:37:42;;;;;;;5.35;4.20;;;;;;;;;;5025021;28;20116;-63
2021/12/11 12:40:14;;;;;;;5.22;3.72;;;;;;;;;;5031359;28;20132;-64
2021/12/11 12:42:50;;;;;;;4.85;4.05;;;;;;;;;;5024512;28;20022;-63
2021/12/11 12:45:21;;;;;;;5.13;4.32;;;;;;;;;;5024150;28;20104;-62
2021/12/11 12:47:51;;;;;;;5.10;3.92;;;;;;;;;;5030357;28;20048;-63
2021/12/11 12:50:19;;;;;;;6.45;4.68;;;;;;;;;;5031448;28;20039;-63
2021/12/11 12:52:45;;;;;;;5.18;4.10;;;;;;;;;;5033715;28;20040;-63
2021/12/11 12:55:22;;;;;;;6.43;4.90;;;;;;;;;;5031256;28;20469;-65
2021/12/11 12:57:49;;;;;;;6.22;4.38;;;;;;;;;;5028204;28;20026;-63
2021/12/11 13:00:15;;;;;;;5.13;4.07;;;;;;;;;;5031477;28;20075;-62
2021/12/11 13:02:43;;;;;;;5.97;4.57;;;;;;;;;;5023743;28;20018;-64
2021/12/11 13:05:27;;;;;;;6.13;4.60;;;;;;;;;;5031386;28;20029;-62
2021/12/11 13:07:54;;;;;;;4.90;4.22;;;;;;;;;;5027741;28;20521;-63
2021/12/11 13:10:22;;;;;;;5.80;4.72;;;;;;;;;;5031376;28;20479;-64
2021/12/11 13:12:49;;;;;;;6.78;4.93;;;;;;;;;;5029043;28;20037;-63
2021/12/11 13:15:20;;;;;;;6.43;4.70;;;;;;;;;;5030078;28;20037;-62
2021/12/11 13:17:48;;;;;;;7.20;5.20;;;;;;;;;;5022431;28;20026;-62
2021/12/11 13:20:16;;;;;;;6.30;5.00;;;;;;;;;;5026756;28;20025;-64
2021/12/11 13:22:43;;;;;;;6.68;5.05;;;;;;;;;;5033471;28;20151;-63
2021/12/11 13:25:14;;;;;;;6.55;5.30;;;;;;;;;;5029558;28;20036;-63
2021/12/11 13:27:39;;;;;;;7.40;5.47;;;;;;;;;;5026574;28;20056;-64
2021/12/11 13:30:07;;;;;;;7.70;5.55;;;;;;;;;;5028323;28;20049;-63
2021/12/11 13:32:33;;;;;;;6.85;5.22;;;;;;;;;;5029866;28;20025;-63
2021/12/11 13:35:00;;;;;;;7.70;6.15;;;;;;;;;;5030358;28;20335;-62
2021/12/11 13:37:27;;;;;;;8.60;6.05;;;;;;;;;;5031124;28;20018;-62
2021/12/11 13:39:53;;;;;;;8.30;6.28;;;;;;;;;;5026928;28;20037;-63
2021/12/11 13:42:37;;;;;;;7.82;6.18;;;;;;;;;;5030088;28;20030;-65
2021/12/11 13:45:10;;;;;;;9.77;7.38;;;;;;;;;;5023043;28;20057;-62
2021/12/11 13:47:36;;;;;;;9.35;6.72;;;;;;;;;;5022002;28;20051;-63
2021/12/11 13:50:05;;;;;;;9.48;6.78;;;;;;;;;;5029164;28;20029;-64
2021/12/11 13:52:30;;;;;;;9.27;6.80;;;;;;;;;;5021466;28;20045;-63
2021/12/11 13:54:56;;;;;;;8.95;7.00;;;;;;;;;;5027545;28;20126;-62
2021/12/11 13:57:25;;;;;;;10.75;7.03;;;;;;;;;;5017724;28;20039;-65
2021/12/11 13:59:51;;;;;;;10.25;7.68;;;;;;;;;;5024057;28;20030;-63
2021/12/11 14:02:19;;;;;;;10.93;7.38;;;;;;;;;;5025935;28;20044;-62
2021/12/11 14:04:45;;;;;;;10.90;7.53;;;;;;;;;;5024567;28;20017;-63
2021/12/11 14:07:12;;;;;;;10.98;7.80;;;;;;;;;;5028532;28;20049;-62
2021/12/11 14:09:40;;;;;;;11.95;7.85;;;;;;;;;;5029220;28;20039;-64
2021/12/11 14:12:06;;;;;;;11.32;8.00;;;;;;;;;;5023470;28;20481;-63
2021/12/11 14:14:31;;;;;;;12.32;8.18;;;;;;;;;;5026247;28;20033;-63
2021/12/11 14:16:56;;;;;;;13.02;8.23;;;;;;;;;;5021636;28;20114;-63
2021/12/11 14:19:22;;;;;;;13.55;9.20;;;;;;;;;;5025477;28;20081;-63
2021/12/11 14:21:47;;;;;;;13.98;9.88;;;;;;;;;;5029620;28;20032;-64
2021/12/11 14:24:12;;;;;;;13.55;9.05;;;;;;;;;;5029636;28;20026;-63
2021/12/11 14:26:38;;;;;;;14.73;9.98;;;;;;;;;;5029662;28;20040;-62
2021/12/11 14:29:07;;;;;;;14.57;9.65;;;;;;;;;;5028011;28;20029;-63
2021/12/11 14:31:33;;;;;;;15.57;10.25;;;;;;;;;;5028923;28;20117;-62
2021/12/11 14:34:01;;;;;;;14.10;9.90;;;;;;;;;;5029517;28;20526;-62
2021/12/11 14:36:27;;;;;;;15.27;9.95;;;;;;;;;;5028306;28;20108;-63
2021/12/11 14:38:53;;;;;;;15.40;10.45;;;;;;;;;;5023636;28;20083;-63
2021/12/11 14:41:19;;;;;;;16.52;11.07;;;;;;;;;;5025754;28;20057;-62
2021/12/11 14:43:45;;;;;;;16.08;10.98;;;;;;;;;;5029853;28;20041;-64
2021/12/11 14:46:11;;;;;;;15.27;10.27;;;;;;;;;;5028754;28;20048;-62
2021/12/11 14:48:36;;;;;;;20.23;12.15;;;;;;;;;;5019626;28;20496;-63
2021/12/11 14:51:14;;;;;;;16.92;11.18;;;;;;;;;;5024878;28;20025;-62
2021/12/11 14:53:41;;;;;;;20.02;12.23;;;;;;;;;;5025425;28;20033;-62
2021/12/11 14:56:09;;;;;;;17.60;12.10;;;;;;;;;;5024647;28;20057;-63
2021/12/11 14:58:37;;;;;;;19.17;12.30;;;;;;;;;;5021333;28;20508;-63
2021/12/11 15:01:18;;;;;;;19.75;12.32;;;;;;;;;;5025926;28;20032;-64
2021/12/11 15:03:43;;;;;;;18.67;11.85;;;;;;;;;;5029187;28;20033;-63